sensor_id;sensor_type;location;lat;lon;timestamp;P1;durP1;ratioP1;P2;durP2;ratioP2
14754;SDS011;7469;50.906;6.952;2023-04-06T00:02:13;13.27;;;6.93;;
14754;SDS011;7469;50.906;6.952;2023-04-06T00:04:41;11.63;;;6.87;;
14754;SDS011;7469;50.906;6.952;2023-04-06T00:07:11;13.77;;;6.57;;
14754;SDS011;7469;50.906;6.952;2023-04-06T00:09:39;10.43;;;6.73;;
14754;SDS011;7469;50.906;6.952;2023-04-06T00:12:07;11.40;;;7.13;;
14754;SDS011;7469;50.906;6.952;2023-04-06T00:14:35;11.20;;;7.03;;
14754;SDS011;7469;50.906;6.952;2023-04-06T00:17:03;10.77;;;6.87;;
14754;SDS011;7469;50.906;6.952;2023-04-06T00:19:31;10.20;;;6.63;;
14754;SDS011;7469;50.906;6.952;2023-04-06T00:21:59;11.80;;;6.67;;
14754;SDS011;7469;50.906;6.952;2023-04-06T00:24:29;13.23;;;7.23;;
14754;SDS011;7469;50.906;6.952;2023-04-06T00:26:57;13.90;;;6.93;;
14754;SDS011;7469;50.906;6.952;2023-04-06T00:29:26;14.00;;;6.63;;
14754;SDS011;7469;50.906;6.952;2023-04-06T00:31:54;9.53;;;6.03;;
14754;SDS011;7469;50.906;6.952;2023-04-06T00:34:22;14.70;;;6.77;;
14754;SDS011;7469;50.906;6.952;2023-04-06T00:36:50;9.17;;;6.47;;
14754;SDS011;7469;50.906;6.952;2023-04-06T00:39:18;10.20;;;6.57;;
14754;SDS011;7469;50.906;6.952;2023-04-06T00:41:49;9.17;;;5.87;;
14754;SDS011;7469;50.906;6.952;2023-04-06T00:44:18;10.67;;;6.10;;
14754;SDS011;7469;50.906;6.952;2023-04-06T00:46:46;10.20;;;6.47;;
14754;SDS011;7469;50.906;6.952;2023-04-06T00:49:15;11.13;;;6.43;;
14754;SDS011;7469;50.906;6.952;2023-04-06T00:51:43;7.83;;;5.27;;
14754;SDS011;7469;50.906;6.952;2023-04-06T00:54:11;10.30;;;6.20;;
14754;SDS011;7469;50.906;6.952;2023-04-06T00:56:39;9.97;;;5.90;;
14754;SDS011;7469;50.906;6.952;2023-04-06T00:59:10;6.67;;;5.20;;
14754;SDS011;7469;50.906;6.952;2023-04-06T01:01:39;11.83;;;5.90;;
14754;SDS011;7469;50.906;6.952;2023-04-06T01:04:07;7.83;;;5.50;;
14754;SDS011;7469;50.906;6.952;2023-04-06T01:06:36;7.93;;;5.27;;
14754;SDS011;7469;50.906;6.952;2023-04-06T01:09:04;14.03;;;5.57;;
14754;SDS011;7469;50.906;6.952;2023-04-06T01:11:32;11.07;;;5.07;;
14754;SDS011;7469;50.906;6.952;2023-04-06T01:14:00;11.27;;;5.17;;
14754;SDS011;7469;50.906;6.952;2023-04-06T01:16:30;8.70;;;5.13;;
14754;SDS011;7469;50.906;6.952;2023-04-06T01:18:58;11.10;;;5.67;;
14754;SDS011;7469;50.906;6.952;2023-04-06T01:21:26;7.60;;;5.13;;
14754;SDS011;7469;50.906;6.952;2023-04-06T01:23:55;13.50;;;5.43;;
14754;SDS011;7469;50.906;6.952;2023-04-06T01:26:24;10.13;;;5.23;;
14754;SDS011;7469;50.906;6.952;2023-04-06T01:28:53;11.17;;;5.73;;
14754;SDS011;7469;50.906;6.952;2023-04-06T01:31:21;8.80;;;4.83;;
14754;SDS011;7469;50.906;6.952;2023-04-06T01:33:49;7.30;;;4.93;;
14754;SDS011;7469;50.906;6.952;2023-04-06T01:36:17;9.77;;;5.00;;
14754;SDS011;7469;50.906;6.952;2023-04-06T01:38:45;7.93;;;5.40;;
14754;SDS011;7469;50.906;6.952;2023-04-06T01:41:15;9.83;;;5.80;;
14754;SDS011;7469;50.906;6.952;2023-04-06T01:43:43;10.77;;;5.00;;
14754;SDS011;7469;50.906;6.952;2023-04-06T01:46:11;7.53;;;5.30;;
14754;SDS011;7469;50.906;6.952;2023-04-06T01:48:40;8.47;;;5.17;;
14754;SDS011;7469;50.906;6.952;2023-04-06T01:51:08;8.57;;;5.00;;
14754;SDS011;7469;50.906;6.952;2023-04-06T01:53:36;6.37;;;4.83;;
14754;SDS011;7469;50.906;6.952;2023-04-06T01:56:04;8.77;;;5.37;;
14754;SDS011;7469;50.906;6.952;2023-04-06T01:58:34;7.43;;;4.63;;
14754;SDS011;7469;50.906;6.952;2023-04-06T02:01:02;8.07;;;4.70;;
14754;SDS011;7469;50.906;6.952;2023-04-06T02:03:31;7.57;;;4.60;;
14754;SDS011;7469;50.906;6.952;2023-04-06T02:05:59;9.00;;;5.00;;
14754;SDS011;7469;50.906;6.952;2023-04-06T02:08:27;8.00;;;4.57;;
14754;SDS011;7469;50.906;6.952;2023-04-06T02:10:55;6.27;;;4.80;;
14754;SDS011;7469;50.906;6.952;2023-04-06T02:13:23;8.93;;;5.00;;
14754;SDS011;7469;50.906;6.952;2023-04-06T02:15:52;7.43;;;4.27;;
14754;SDS011;7469;50.906;6.952;2023-04-06T02:18:20;6.57;;;4.53;;
14754;SDS011;7469;50.906;6.952;2023-04-06T02:20:48;7.67;;;4.97;;
14754;SDS011;7469;50.906;6.952;2023-04-06T02:23:17;6.90;;;4.70;;
14754;SDS011;7469;50.906;6.952;2023-04-06T02:25:45;9.60;;;4.63;;
14754;SDS011;7469;50.906;6.952;2023-04-06T02:28:13;9.20;;;4.37;;
14754;SDS011;7469;50.906;6.952;2023-04-06T02:30:41;5.97;;;4.37;;
14754;SDS011;7469;50.906;6.952;2023-04-06T02:33:11;9.30;;;4.83;;
14754;SDS011;7469;50.906;6.952;2023-04-06T02:35:39;7.50;;;4.70;;
14754;SDS011;7469;50.906;6.952;2023-04-06T02:38:07;11.77;;;5.47;;
14754;SDS011;7469;50.906;6.952;2023-04-06T02:40:35;6.20;;;4.53;;
14754;SDS011;7469;50.906;6.952;2023-04-06T02:43:03;6.77;;;4.40;;
14754;SDS011;7469;50.906;6.952;2023-04-06T02:45:31;7.90;;;4.97;;
14754;SDS011;7469;50.906;6.952;2023-04-06T02:47:59;5.47;;;4.33;;
14754;SDS011;7469;50.906;6.952;2023-04-06T02:50:28;6.50;;;4.90;;
14754;SDS011;7469;50.906;6.952;2023-04-06T02:52:57;5.13;;;4.07;;
14754;SDS011;7469;50.906;6.952;2023-04-06T02:55:25;11.67;;;4.77;;
14754;SDS011;7469;50.906;6.952;2023-04-06T02:57:53;5.60;;;4.70;;
14754;SDS011;7469;50.906;6.952;2023-04-06T03:00:21;8.23;;;4.50;;
14754;SDS011;7469;50.906;6.952;2023-04-06T03:02:49;7.10;;;4.20;;
14754;SDS011;7469;50.906;6.952;2023-04-06T03:05:18;5.80;;;4.70;;
14754;SDS011;7469;50.906;6.952;2023-04-06T03:07:47;7.07;;;4.67;;
14754;SDS011;7469;50.906;6.952;2023-04-06T03:10:15;9.67;;;3.97;;
14754;SDS011;7469;50.906;6.952;2023-04-06T03:12:43;6.97;;;4.57;;
14754;SDS011;7469;50.906;6.952;2023-04-06T03:15:11;10.87;;;4.47;;
14754;SDS011;7469;50.906;6.952;2023-04-06T03:17:41;6.13;;;4.30;;
14754;SDS011;7469;50.906;6.952;2023-04-06T03:20:09;6.37;;;3.93;;
14754;SDS011;7469;50.906;6.952;2023-04-06T03:22:38;5.67;;;4.30;;
14754;SDS011;7469;50.906;6.952;2023-04-06T03:25:07;7.07;;;4.43;;
14754;SDS011;7469;50.906;6.952;2023-04-06T03:27:36;5.90;;;4.33;;
14754;SDS011;7469;50.906;6.952;2023-04-06T03:30:05;6.67;;;4.33;;
14754;SDS011;7469;50.906;6.952;2023-04-06T03:32:33;6.03;;;3.90;;
14754;SDS011;7469;50.906;6.952;2023-04-06T03:35:02;6.10;;;4.33;;
14754;SDS011;7469;50.906;6.952;2023-04-06T03:37:30;9.63;;;4.40;;
14754;SDS011;7469;50.906;6.952;2023-04-06T03:39:58;5.30;;;4.37;;
14754;SDS011;7469;50.906;6.952;2023-04-06T03:42:27;8.53;;;4.53;;
14754;SDS011;7469;50.906;6.952;2023-04-06T03:44:56;6.43;;;4.53;;
14754;SDS011;7469;50.906;6.952;2023-04-06T03:47:24;5.23;;;3.93;;
14754;SDS011;7469;50.906;6.952;2023-04-06T03:49:52;12.47;;;4.73;;
14754;SDS011;7469;50.906;6.952;2023-04-06T03:52:20;9.20;;;4.83;;
14754;SDS011;7469;50.906;6.952;2023-04-06T03:54:49;10.17;;;4.80;;
14754;SDS011;7469;50.906;6.952;2023-04-06T03:57:17;6.40;;;4.53;;
14754;SDS011;7469;50.906;6.952;2023-04-06T03:59:46;8.60;;;4.53;;
14754;SDS011;7469;50.906;6.952;2023-04-06T04:02:14;5.80;;;3.90;;
14754;SDS011;7469;50.906;6.952;2023-04-06T04:04:42;11.10;;;4.73;;
14754;SDS011;7469;50.906;6.952;2023-04-06T04:07:11;6.03;;;4.13;;
14754;SDS011;7469;50.906;6.952;2023-04-06T04:09:39;6.30;;;4.37;;
14754;SDS011;7469;50.906;6.952;2023-04-06T04:12:07;8.00;;;4.27;;
14754;SDS011;7469;50.906;6.952;2023-04-06T04:14:35;6.47;;;4.47;;
14754;SDS011;7469;50.906;6.952;2023-04-06T04:17:04;7.97;;;4.27;;
14754;SDS011;7469;50.906;6.952;2023-04-06T04:19:32;9.33;;;4.80;;
14754;SDS011;7469;50.906;6.952;2023-04-06T04:22:00;7.23;;;4.43;;
14754;SDS011;7469;50.906;6.952;2023-04-06T04:24:30;7.80;;;4.50;;
14754;SDS011;7469;50.906;6.952;2023-04-06T04:26:59;8.43;;;4.57;;
14754;SDS011;7469;50.906;6.952;2023-04-06T04:29:28;8.00;;;4.47;;
14754;SDS011;7469;50.906;6.952;2023-04-06T04:31:56;8.57;;;4.83;;
14754;SDS011;7469;50.906;6.952;2023-04-06T04:34:25;7.90;;;4.93;;
14754;SDS011;7469;50.906;6.952;2023-04-06T04:36:54;7.70;;;4.90;;
14754;SDS011;7469;50.906;6.952;2023-04-06T04:39:22;11.37;;;4.60;;
14754;SDS011;7469;50.906;6.952;2023-04-06T04:41:50;8.27;;;4.40;;
14754;SDS011;7469;50.906;6.952;2023-04-06T04:44:18;10.17;;;5.10;;
14754;SDS011;7469;50.906;6.952;2023-04-06T04:46:46;6.00;;;4.27;;
14754;SDS011;7469;50.906;6.952;2023-04-06T04:49:14;7.10;;;4.53;;
14754;SDS011;7469;50.906;6.952;2023-04-06T04:51:44;6.23;;;4.63;;
14754;SDS011;7469;50.906;6.952;2023-04-06T04:54:19;8.40;;;4.93;;
14754;SDS011;7469;50.906;6.952;2023-04-06T04:56:47;6.93;;;4.50;;
14754;SDS011;7469;50.906;6.952;2023-04-06T04:59:16;9.27;;;5.20;;
14754;SDS011;7469;50.906;6.952;2023-04-06T05:01:45;10.43;;;4.97;;
14754;SDS011;7469;50.906;6.952;2023-04-06T05:04:20;6.40;;;4.43;;
14754;SDS011;7469;50.906;6.952;2023-04-06T05:06:50;9.90;;;5.03;;
14754;SDS011;7469;50.906;6.952;2023-04-06T05:09:29;7.43;;;4.73;;
14754;SDS011;7469;50.906;6.952;2023-04-06T05:11:57;7.57;;;4.57;;
14754;SDS011;7469;50.906;6.952;2023-04-06T05:14:26;8.17;;;5.07;;
14754;SDS011;7469;50.906;6.952;2023-04-06T05:16:54;7.53;;;4.30;;
14754;SDS011;7469;50.906;6.952;2023-04-06T05:19:22;8.87;;;5.20;;
14754;SDS011;7469;50.906;6.952;2023-04-06T05:21:52;7.67;;;4.77;;
14754;SDS011;7469;50.906;6.952;2023-04-06T05:24:20;8.27;;;4.20;;
14754;SDS011;7469;50.906;6.952;2023-04-06T05:26:48;7.83;;;5.03;;
14754;SDS011;7469;50.906;6.952;2023-04-06T05:29:18;10.30;;;5.40;;
14754;SDS011;7469;50.906;6.952;2023-04-06T05:31:47;10.90;;;5.27;;
14754;SDS011;7469;50.906;6.952;2023-04-06T05:34:15;4.70;;;4.00;;
14754;SDS011;7469;50.906;6.952;2023-04-06T05:36:44;7.57;;;4.93;;
14754;SDS011;7469;50.906;6.952;2023-04-06T05:39:13;6.10;;;4.70;;
14754;SDS011;7469;50.906;6.952;2023-04-06T05:41:41;6.70;;;4.37;;
14754;SDS011;7469;50.906;6.952;2023-04-06T05:44:09;9.13;;;4.40;;
14754;SDS011;7469;50.906;6.952;2023-04-06T05:46:39;7.57;;;4.53;;
14754;SDS011;7469;50.906;6.952;2023-04-06T05:49:08;6.90;;;5.03;;
14754;SDS011;7469;50.906;6.952;2023-04-06T05:51:36;9.40;;;4.67;;
14754;SDS011;7469;50.906;6.952;2023-04-06T05:54:04;7.93;;;5.17;;
14754;SDS011;7469;50.906;6.952;2023-04-06T05:56:37;7.83;;;4.77;;
14754;SDS011;7469;50.906;6.952;2023-04-06T05:59:05;8.87;;;5.00;;
14754;SDS011;7469;50.906;6.952;2023-04-06T06:01:33;9.17;;;5.07;;
14754;SDS011;7469;50.906;6.952;2023-04-06T06:04:02;10.57;;;5.57;;
14754;SDS011;7469;50.906;6.952;2023-04-06T06:06:30;6.80;;;5.30;;
14754;SDS011;7469;50.906;6.952;2023-04-06T06:08:58;9.17;;;4.87;;
14754;SDS011;7469;50.906;6.952;2023-04-06T06:11:27;8.00;;;5.00;;
14754;SDS011;7469;50.906;6.952;2023-04-06T06:13:56;7.87;;;4.77;;
14754;SDS011;7469;50.906;6.952;2023-04-06T06:16:24;9.60;;;4.87;;
14754;SDS011;7469;50.906;6.952;2023-04-06T06:18:52;7.10;;;4.80;;
14754;SDS011;7469;50.906;6.952;2023-04-06T06:21:21;8.73;;;5.80;;
14754;SDS011;7469;50.906;6.952;2023-04-06T06:23:49;8.03;;;5.30;;
14754;SDS011;7469;50.906;6.952;2023-04-06T06:26:17;7.27;;;4.70;;
14754;SDS011;7469;50.906;6.952;2023-04-06T06:28:45;10.27;;;5.87;;
14754;SDS011;7469;50.906;6.952;2023-04-06T06:31:14;8.50;;;5.63;;
14754;SDS011;7469;50.906;6.952;2023-04-06T06:33:43;9.33;;;4.87;;
14754;SDS011;7469;50.906;6.952;2023-04-06T06:36:11;10.17;;;5.40;;
14754;SDS011;7469;50.906;6.952;2023-04-06T06:38:39;8.03;;;5.13;;
14754;SDS011;7469;50.906;6.952;2023-04-06T06:41:07;7.17;;;5.20;;
14754;SDS011;7469;50.906;6.952;2023-04-06T06:43:35;8.23;;;5.07;;
14754;SDS011;7469;50.906;6.952;2023-04-06T06:46:03;6.97;;;5.23;;
14754;SDS011;7469;50.906;6.952;2023-04-06T06:48:34;7.77;;;5.03;;
14754;SDS011;7469;50.906;6.952;2023-04-06T06:51:02;11.83;;;6.10;;
14754;SDS011;7469;50.906;6.952;2023-04-06T06:53:30;6.63;;;5.20;;
14754;SDS011;7469;50.906;6.952;2023-04-06T06:55:59;10.00;;;5.57;;
14754;SDS011;7469;50.906;6.952;2023-04-06T06:58:27;11.47;;;5.93;;
14754;SDS011;7469;50.906;6.952;2023-04-06T07:00:55;9.10;;;5.67;;
14754;SDS011;7469;50.906;6.952;2023-04-06T07:03:25;7.77;;;5.67;;
14754;SDS011;7469;50.906;6.952;2023-04-06T07:05:55;11.23;;;6.27;;
14754;SDS011;7469;50.906;6.952;2023-04-06T07:08:23;10.30;;;5.90;;
14754;SDS011;7469;50.906;6.952;2023-04-06T07:10:52;9.50;;;5.73;;
14754;SDS011;7469;50.906;6.952;2023-04-06T07:13:22;9.97;;;5.63;;
14754;SDS011;7469;50.906;6.952;2023-04-06T07:15:50;10.27;;;5.80;;
14754;SDS011;7469;50.906;6.952;2023-04-06T07:18:19;10.50;;;5.63;;
14754;SDS011;7469;50.906;6.952;2023-04-06T07:20:47;11.13;;;6.23;;
14754;SDS011;7469;50.906;6.952;2023-04-06T07:23:17;9.87;;;5.50;;
14754;SDS011;7469;50.906;6.952;2023-04-06T07:25:45;9.67;;;5.80;;
14754;SDS011;7469;50.906;6.952;2023-04-06T07:28:13;8.00;;;5.90;;
14754;SDS011;7469;50.906;6.952;2023-04-06T07:30:41;11.13;;;6.50;;
14754;SDS011;7469;50.906;6.952;2023-04-06T07:33:09;9.53;;;5.93;;
14754;SDS011;7469;50.906;6.952;2023-04-06T07:35:38;14.27;;;6.83;;
14754;SDS011;7469;50.906;6.952;2023-04-06T07:38:06;9.57;;;6.60;;
14754;SDS011;7469;50.906;6.952;2023-04-06T07:40:36;9.50;;;6.20;;
14754;SDS011;7469;50.906;6.952;2023-04-06T07:43:07;10.33;;;6.07;;
14754;SDS011;7469;50.906;6.952;2023-04-06T07:45:35;11.63;;;6.13;;
14754;SDS011;7469;50.906;6.952;2023-04-06T07:48:03;9.00;;;6.03;;
14754;SDS011;7469;50.906;6.952;2023-04-06T07:50:31;9.33;;;6.17;;
14754;SDS011;7469;50.906;6.952;2023-04-06T07:53:00;13.87;;;6.80;;
14754;SDS011;7469;50.906;6.952;2023-04-06T07:55:29;8.30;;;5.60;;
14754;SDS011;7469;50.906;6.952;2023-04-06T07:57:58;9.83;;;6.43;;
14754;SDS011;7469;50.906;6.952;2023-04-06T08:00:27;10.33;;;6.30;;
14754;SDS011;7469;50.906;6.952;2023-04-06T08:02:55;7.67;;;5.60;;
14754;SDS011;7469;50.906;6.952;2023-04-06T08:05:24;9.47;;;5.53;;
14754;SDS011;7469;50.906;6.952;2023-04-06T08:07:52;9.47;;;5.70;;
14754;SDS011;7469;50.906;6.952;2023-04-06T08:10:20;10.63;;;6.00;;
14754;SDS011;7469;50.906;6.952;2023-04-06T08:12:48;12.10;;;6.20;;
14754;SDS011;7469;50.906;6.952;2023-04-06T08:15:18;8.77;;;6.07;;
14754;SDS011;7469;50.906;6.952;2023-04-06T08:17:46;11.37;;;6.57;;
14754;SDS011;7469;50.906;6.952;2023-04-06T08:20:14;9.47;;;6.17;;
14754;SDS011;7469;50.906;6.952;2023-04-06T08:22:43;11.00;;;6.00;;
14754;SDS011;7469;50.906;6.952;2023-04-06T08:25:11;9.40;;;6.37;;
14754;SDS011;7469;50.906;6.952;2023-04-06T08:27:39;11.60;;;6.43;;
14754;SDS011;7469;50.906;6.952;2023-04-06T08:30:08;10.73;;;6.53;;
14754;SDS011;7469;50.906;6.952;2023-04-06T08:32:39;10.80;;;6.07;;
14754;SDS011;7469;50.906;6.952;2023-04-06T08:35:08;9.33;;;5.53;;
14754;SDS011;7469;50.906;6.952;2023-04-06T08:37:37;8.83;;;6.13;;
14754;SDS011;7469;50.906;6.952;2023-04-06T08:40:06;8.70;;;5.90;;
14754;SDS011;7469;50.906;6.952;2023-04-06T08:42:37;9.20;;;5.77;;
14754;SDS011;7469;50.906;6.952;2023-04-06T08:45:08;15.53;;;6.30;;
14754;SDS011;7469;50.906;6.952;2023-04-06T08:47:38;10.07;;;6.50;;
14754;SDS011;7469;50.906;6.952;2023-04-06T08:50:07;8.93;;;6.37;;
14754;SDS011;7469;50.906;6.952;2023-04-06T08:52:37;9.30;;;6.77;;
14754;SDS011;7469;50.906;6.952;2023-04-06T08:55:06;12.23;;;6.63;;
14754;SDS011;7469;50.906;6.952;2023-04-06T08:57:35;7.37;;;6.13;;
14754;SDS011;7469;50.906;6.952;2023-04-06T09:00:04;10.03;;;6.67;;
14754;SDS011;7469;50.906;6.952;2023-04-06T09:02:36;9.00;;;6.37;;
14754;SDS011;7469;50.906;6.952;2023-04-06T09:05:09;12.03;;;6.63;;
14754;SDS011;7469;50.906;6.952;2023-04-06T09:07:38;10.67;;;6.87;;
14754;SDS011;7469;50.906;6.952;2023-04-06T09:10:07;10.10;;;6.07;;
14754;SDS011;7469;50.906;6.952;2023-04-06T09:12:35;9.30;;;6.83;;
14754;SDS011;7469;50.906;6.952;2023-04-06T09:15:03;10.27;;;6.50;;
14754;SDS011;7469;50.906;6.952;2023-04-06T09:17:32;9.30;;;6.33;;
14754;SDS011;7469;50.906;6.952;2023-04-06T09:20:02;11.30;;;7.17;;
14754;SDS011;7469;50.906;6.952;2023-04-06T09:22:37;9.80;;;7.07;;
14754;SDS011;7469;50.906;6.952;2023-04-06T09:25:06;15.03;;;7.13;;
14754;SDS011;7469;50.906;6.952;2023-04-06T09:27:36;10.23;;;6.67;;
14754;SDS011;7469;50.906;6.952;2023-04-06T09:30:05;9.13;;;6.67;;
14754;SDS011;7469;50.906;6.952;2023-04-06T09:32:44;10.50;;;6.97;;
14754;SDS011;7469;50.906;6.952;2023-04-06T09:35:14;13.27;;;7.50;;
14754;SDS011;7469;50.906;6.952;2023-04-06T09:37:43;13.77;;;7.10;;
14754;SDS011;7469;50.906;6.952;2023-04-06T09:40:12;13.10;;;7.40;;
14754;SDS011;7469;50.906;6.952;2023-04-06T09:42:41;11.07;;;7.73;;
14754;SDS011;7469;50.906;6.952;2023-04-06T09:45:10;10.93;;;7.40;;
14754;SDS011;7469;50.906;6.952;2023-04-06T09:47:39;12.50;;;6.73;;
14754;SDS011;7469;50.906;6.952;2023-04-06T09:50:10;10.07;;;7.00;;
14754;SDS011;7469;50.906;6.952;2023-04-06T09:52:42;11.37;;;7.50;;
14754;SDS011;7469;50.906;6.952;2023-04-06T09:55:17;12.63;;;7.70;;
14754;SDS011;7469;50.906;6.952;2023-04-06T09:57:53;13.70;;;7.30;;
14754;SDS011;7469;50.906;6.952;2023-04-06T10:00:28;9.73;;;7.33;;
14754;SDS011;7469;50.906;6.952;2023-04-06T10:02:58;10.77;;;7.70;;
14754;SDS011;7469;50.906;6.952;2023-04-06T10:05:36;10.03;;;7.30;;
14754;SDS011;7469;50.906;6.952;2023-04-06T10:08:11;11.57;;;7.50;;
14754;SDS011;7469;50.906;6.952;2023-04-06T10:10:40;15.03;;;8.13;;
14754;SDS011;7469;50.906;6.952;2023-04-06T10:13:10;11.33;;;7.70;;
14754;SDS011;7469;50.906;6.952;2023-04-06T10:15:39;14.87;;;8.33;;
14754;SDS011;7469;50.906;6.952;2023-04-06T10:18:07;12.47;;;7.60;;
14754;SDS011;7469;50.906;6.952;2023-04-06T10:20:38;11.83;;;7.83;;
14754;SDS011;7469;50.906;6.952;2023-04-06T10:23:11;12.27;;;7.60;;
14754;SDS011;7469;50.906;6.952;2023-04-06T10:25:51;10.77;;;7.17;;
14754;SDS011;7469;50.906;6.952;2023-04-06T10:28:20;11.77;;;8.20;;
14754;SDS011;7469;50.906;6.952;2023-04-06T10:30:49;12.53;;;8.50;;
14754;SDS011;7469;50.906;6.952;2023-04-06T10:33:23;15.73;;;8.70;;
14754;SDS011;7469;50.906;6.952;2023-04-06T10:35:52;11.13;;;7.70;;
14754;SDS011;7469;50.906;6.952;2023-04-06T10:38:21;13.67;;;9.00;;
14754;SDS011;7469;50.906;6.952;2023-04-06T10:41:04;12.07;;;7.73;;
14754;SDS011;7469;50.906;6.952;2023-04-06T10:43:33;12.43;;;8.50;;
14754;SDS011;7469;50.906;6.952;2023-04-06T10:46:03;15.13;;;8.50;;
14754;SDS011;7469;50.906;6.952;2023-04-06T10:48:38;12.40;;;8.43;;
14754;SDS011;7469;50.906;6.952;2023-04-06T10:51:08;13.70;;;8.57;;
14754;SDS011;7469;50.906;6.952;2023-04-06T10:53:39;11.60;;;7.87;;
14754;SDS011;7469;50.906;6.952;2023-04-06T10:56:10;12.77;;;8.60;;
14754;SDS011;7469;50.906;6.952;2023-04-06T10:58:43;12.63;;;8.17;;
14754;SDS011;7469;50.906;6.952;2023-04-06T11:01:13;14.83;;;9.40;;
14754;SDS011;7469;50.906;6.952;2023-04-06T11:03:43;17.10;;;9.87;;
14754;SDS011;7469;50.906;6.952;2023-04-06T11:06:17;13.03;;;8.67;;
14754;SDS011;7469;50.906;6.952;2023-04-06T11:08:47;13.87;;;8.30;;
14754;SDS011;7469;50.906;6.952;2023-04-06T11:11:16;11.63;;;8.23;;
14754;SDS011;7469;50.906;6.952;2023-04-06T11:13:46;13.23;;;8.90;;
14754;SDS011;7469;50.906;6.952;2023-04-06T11:16:16;11.93;;;8.83;;
14754;SDS011;7469;50.906;6.952;2023-04-06T11:18:52;14.43;;;8.33;;
14754;SDS011;7469;50.906;6.952;2023-04-06T11:21:33;12.90;;;8.63;;
14754;SDS011;7469;50.906;6.952;2023-04-06T11:24:07;12.17;;;8.43;;
14754;SDS011;7469;50.906;6.952;2023-04-06T11:26:40;11.93;;;8.00;;
14754;SDS011;7469;50.906;6.952;2023-04-06T11:29:10;14.23;;;8.47;;
14754;SDS011;7469;50.906;6.952;2023-04-06T11:31:40;12.47;;;8.00;;
14754;SDS011;7469;50.906;6.952;2023-04-06T11:34:12;12.93;;;8.37;;
14754;SDS011;7469;50.906;6.952;2023-04-06T11:36:43;11.50;;;7.97;;
14754;SDS011;7469;50.906;6.952;2023-04-06T11:39:18;12.00;;;7.83;;
14754;SDS011;7469;50.906;6.952;2023-04-06T11:41:48;13.97;;;7.57;;
14754;SDS011;7469;50.906;6.952;2023-04-06T11:44:26;13.90;;;7.70;;
14754;SDS011;7469;50.906;6.952;2023-04-06T11:46:59;12.40;;;7.17;;
14754;SDS011;7469;50.906;6.952;2023-04-06T11:49:28;12.93;;;7.87;;
14754;SDS011;7469;50.906;6.952;2023-04-06T11:51:57;10.63;;;7.10;;
14754;SDS011;7469;50.906;6.952;2023-04-06T11:54:31;11.83;;;7.53;;
14754;SDS011;7469;50.906;6.952;2023-04-06T11:57:00;12.13;;;7.53;;
14754;SDS011;7469;50.906;6.952;2023-04-06T11:59:29;10.60;;;7.80;;
14754;SDS011;7469;50.906;6.952;2023-04-06T12:01:57;12.97;;;7.97;;
14754;SDS011;7469;50.906;6.952;2023-04-06T12:04:25;10.70;;;7.37;;
14754;SDS011;7469;50.906;6.952;2023-04-06T12:06:53;12.47;;;7.13;;
14754;SDS011;7469;50.906;6.952;2023-04-06T12:09:21;12.23;;;7.67;;
14754;SDS011;7469;50.906;6.952;2023-04-06T12:11:52;12.73;;;7.43;;
14754;SDS011;7469;50.906;6.952;2023-04-06T12:14:20;14.53;;;7.23;;
14754;SDS011;7469;50.906;6.952;2023-04-06T12:16:49;9.50;;;6.63;;
14754;SDS011;7469;50.906;6.952;2023-04-06T12:19:17;9.70;;;6.23;;
14754;SDS011;7469;50.906;6.952;2023-04-06T12:21:45;9.60;;;6.27;;
14754;SDS011;7469;50.906;6.952;2023-04-06T12:24:14;11.10;;;6.27;;
14754;SDS011;7469;50.906;6.952;2023-04-06T12:26:42;8.80;;;5.83;;
14754;SDS011;7469;50.906;6.952;2023-04-06T12:29:14;8.90;;;5.43;;
14754;SDS011;7469;50.906;6.952;2023-04-06T12:31:43;11.27;;;6.17;;
14754;SDS011;7469;50.906;6.952;2023-04-06T12:34:11;9.87;;;5.97;;
14754;SDS011;7469;50.906;6.952;2023-04-06T12:36:39;7.30;;;5.27;;
14754;SDS011;7469;50.906;6.952;2023-04-06T12:39:07;7.53;;;5.30;;
14754;SDS011;7469;50.906;6.952;2023-04-06T12:41:35;6.57;;;4.97;;
14754;SDS011;7469;50.906;6.952;2023-04-06T12:44:06;7.17;;;5.47;;
14754;SDS011;7469;50.906;6.952;2023-04-06T12:46:36;7.03;;;5.33;;
14754;SDS011;7469;50.906;6.952;2023-04-06T12:49:04;6.33;;;5.10;;
14754;SDS011;7469;50.906;6.952;2023-04-06T12:51:32;6.33;;;4.63;;
14754;SDS011;7469;50.906;6.952;2023-04-06T12:54:00;5.50;;;4.60;;
14754;SDS011;7469;50.906;6.952;2023-04-06T12:56:28;5.70;;;4.50;;
14754;SDS011;7469;50.906;6.952;2023-04-06T12:58:57;9.23;;;4.70;;
14754;SDS011;7469;50.906;6.952;2023-04-06T13:01:25;6.13;;;4.80;;
14754;SDS011;7469;50.906;6.952;2023-04-06T13:03:55;7.67;;;4.87;;
14754;SDS011;7469;50.906;6.952;2023-04-06T13:06:24;7.80;;;4.73;;
14754;SDS011;7469;50.906;6.952;2023-04-06T13:08:54;7.27;;;4.90;;
14754;SDS011;7469;50.906;6.952;2023-04-06T13:11:22;8.07;;;4.47;;
14754;SDS011;7469;50.906;6.952;2023-04-06T13:13:53;6.97;;;4.60;;
14754;SDS011;7469;50.906;6.952;2023-04-06T13:16:22;9.53;;;5.00;;
14754;SDS011;7469;50.906;6.952;2023-04-06T13:18:50;6.67;;;4.77;;
14754;SDS011;7469;50.906;6.952;2023-04-06T13:21:20;6.70;;;4.80;;
14754;SDS011;7469;50.906;6.952;2023-04-06T13:23:48;7.37;;;5.47;;
14754;SDS011;7469;50.906;6.952;2023-04-06T13:26:16;7.53;;;5.20;;
14754;SDS011;7469;50.906;6.952;2023-04-06T13:28:44;6.40;;;4.60;;
14754;SDS011;7469;50.906;6.952;2023-04-06T13:31:12;10.50;;;5.20;;
14754;SDS011;7469;50.906;6.952;2023-04-06T13:33:40;8.60;;;5.00;;
14754;SDS011;7469;50.906;6.952;2023-04-06T13:36:08;11.03;;;5.27;;
14754;SDS011;7469;50.906;6.952;2023-04-06T13:38:38;10.93;;;4.90;;
14754;SDS011;7469;50.906;6.952;2023-04-06T13:41:06;9.77;;;5.17;;
14754;SDS011;7469;50.906;6.952;2023-04-06T13:43:34;9.60;;;4.63;;
14754;SDS011;7469;50.906;6.952;2023-04-06T13:46:02;5.43;;;4.33;;
14754;SDS011;7469;50.906;6.952;2023-04-06T13:48:31;10.30;;;4.23;;
14754;SDS011;7469;50.906;6.952;2023-04-06T13:51:07;8.90;;;4.60;;
14754;SDS011;7469;50.906;6.952;2023-04-06T13:53:37;7.60;;;4.93;;
14754;SDS011;7469;50.906;6.952;2023-04-06T13:56:07;7.73;;;4.60;;
14754;SDS011;7469;50.906;6.952;2023-04-06T13:58:35;8.10;;;5.67;;
14754;SDS011;7469;50.906;6.952;2023-04-06T14:01:03;7.87;;;5.13;;
14754;SDS011;7469;50.906;6.952;2023-04-06T14:03:33;9.00;;;5.87;;
14754;SDS011;7469;50.906;6.952;2023-04-06T14:06:08;8.13;;;5.23;;
14754;SDS011;7469;50.906;6.952;2023-04-06T14:08:54;8.40;;;4.83;;
14754;SDS011;7469;50.906;6.952;2023-04-06T14:11:23;7.73;;;4.50;;
14754;SDS011;7469;50.906;6.952;2023-04-06T14:13:51;6.60;;;5.30;;
14754;SDS011;7469;50.906;6.952;2023-04-06T14:16:23;7.80;;;4.70;;
14754;SDS011;7469;50.906;6.952;2023-04-06T14:18:52;6.57;;;4.73;;
14754;SDS011;7469;50.906;6.952;2023-04-06T14:21:21;7.10;;;4.47;;
14754;SDS011;7469;50.906;6.952;2023-04-06T14:23:49;5.90;;;4.13;;
14754;SDS011;7469;50.906;6.952;2023-04-06T14:26:18;6.07;;;4.20;;
14754;SDS011;7469;50.906;6.952;2023-04-06T14:28:46;6.60;;;4.30;;
14754;SDS011;7469;50.906;6.952;2023-04-06T14:31:15;6.93;;;4.73;;
14754;SDS011;7469;50.906;6.952;2023-04-06T14:33:43;5.07;;;4.00;;
14754;SDS011;7469;50.906;6.952;2023-04-06T14:36:12;5.93;;;4.17;;
14754;SDS011;7469;50.906;6.952;2023-04-06T14:38:40;6.27;;;3.83;;
14754;SDS011;7469;50.906;6.952;2023-04-06T14:41:14;4.47;;;3.40;;
14754;SDS011;7469;50.906;6.952;2023-04-06T14:43:45;5.37;;;4.10;;
14754;SDS011;7469;50.906;6.952;2023-04-06T14:46:14;5.63;;;3.63;;
14754;SDS011;7469;50.906;6.952;2023-04-06T14:48:43;5.40;;;4.00;;
14754;SDS011;7469;50.906;6.952;2023-04-06T14:51:11;6.83;;;4.23;;
14754;SDS011;7469;50.906;6.952;2023-04-06T14:53:39;6.17;;;4.00;;
14754;SDS011;7469;50.906;6.952;2023-04-06T14:56:07;4.03;;;3.17;;
14754;SDS011;7469;50.906;6.952;2023-04-06T14:58:35;4.53;;;3.60;;
14754;SDS011;7469;50.906;6.952;2023-04-06T15:01:04;6.27;;;3.97;;
14754;SDS011;7469;50.906;6.952;2023-04-06T15:03:32;5.13;;;3.80;;
14754;SDS011;7469;50.906;6.952;2023-04-06T15:06:01;4.27;;;3.33;;
14754;SDS011;7469;50.906;6.952;2023-04-06T15:08:29;6.80;;;3.87;;